WetterOnline ( https://www.wetteronline.ch )

Wetter aktuell Nesselwang

Aktuelles Wetter: Kempten (705m)

6-stündlich | Neueste Meldungen
Ortszeit Temperatur Wetter
Di, 12.11. 1:00 2.0° C leichter Regen
Mo, 11.11. 19:00 1.7° C leichter Regen
Mo, 11.11. 13:00 2.7° C wolkig
Mo, 11.11. 7:00 -2.5° C Nebel
Mo, 11.11. 1:00 -1.2° C Nebel
So, 10.11. 19:00 -0.4° C Nebel
So, 10.11. 13:00 5.6° C wolkenlos
So, 10.11. 7:00 -5.0° C wolkenlos
Ortszeit Temperatur Wetter
Di, 12.11. 3:30 1.9° C Sprühregen
Di, 12.11. 3:20 1.9° C Sprühregen
Di, 12.11. 3:10 1.9° C Sprühregen
Di, 12.11. 3:00 1.8° C leichter Regen
Di, 12.11. 2:50 1.8° C leichter Regen
Di, 12.11. 2:40 1.8° C leichter Regen
Di, 12.11. 2:30 1.9° C leichter Regen
Di, 12.11. 2:00 1.9° C leichter Regen
Di, 12.11. 1:30 2.0° C Sprühregen
Di, 12.11. 1:00 2.0° C leichter Regen
Di, 12.11. 0:30 2.2° C leichter Regen
Ortszeit Relative Feuchte Sichtweite
Di, 12.11. 1:00 92% 12 km
Mo, 11.11. 19:00 90% 9 km
Mo, 11.11. 13:00 80% 19 km
Mo, 11.11. 7:00 99% 0.9 km
Mo, 11.11. 1:00 99% 0.2 km
So, 10.11. 19:00 99% 100 m
So, 10.11. 13:00 71% 19 km
So, 10.11. 7:00 91% 24 km
Ortszeit Relative Feuchte Sichtweite
Di, 12.11. 3:30 94% 18 km
Di, 12.11. 3:20 94% -
Di, 12.11. 3:10 94% -
Di, 12.11. 3:00 94% 12 km
Di, 12.11. 2:50 94% -
Di, 12.11. 2:40 94% -
Di, 12.11. 2:30 94% 9 km
Di, 12.11. 2:00 93% 12 km
Di, 12.11. 1:30 94% 10 km
Di, 12.11. 1:00 92% 12 km
Di, 12.11. 0:30 92% 11 km
Ortszeit Niederschlagsmenge Niederschlagsart
Di, 12.11. 1:00 6 l/m2 in 6 Std. Regen
Mo, 11.11. 19:00 0.1 l/m2 in 12 Std. Regen
Mo, 11.11. 13:00 0.0 l/m2 in 6 Std. -
Mo, 11.11. 7:00 0.1 l/m2 in 12 Std. Sprühregen
Mo, 11.11. 1:00 0.0 l/m2 in 6 Std. -
So, 10.11. 19:00 0.0 l/m2 in 12 Std. -
So, 10.11. 13:00 0.0 l/m2 in 6 Std. -
So, 10.11. 7:00 0.0 l/m2 in 12 Std. -
Ortszeit Niederschlagsmenge Niederschlagsart
Di, 12.11. 3:30 0.1 l/m2 in 1 Std. -
Di, 12.11. 3:20 keine Meldung -
Di, 12.11. 3:10 keine Meldung -
Di, 12.11. 3:00 0.2 l/m2 in 1 Std. Regen
Di, 12.11. 2:50 keine Meldung -
Di, 12.11. 2:40 keine Meldung -
Di, 12.11. 2:30 0.1 l/m2 in 1 Std. -
Di, 12.11. 2:00 0.2 l/m2 in 1 Std. Regen
Di, 12.11. 1:30 0.1 l/m2 in 1 Std. -
Di, 12.11. 1:00 0.7 l/m2 in 1 Std. Regen
Di, 12.11. 0:30 0.4 l/m2 in 1 Std. -
Ortszeit Stärke Spitze Richtung
km/h Bft. km/h Grad Sektor
Di, 12.11. 1:00 18 3 29 190° S
Mo, 11.11. 19:00 6 1 20 140° SO
Mo, 11.11. 13:00 4 1 11 350° N
Mo, 11.11. 7:00 4 1 11 50° NO
Mo, 11.11. 1:00 6 1 9 100° O
So, 10.11. 19:00 0 0 18 - -
So, 10.11. 13:00 7 2 14 340° N
So, 10.11. 7:00 7 2 14 110° O
Ortszeit Stärke Spitze Richtung
km/h Bft. km/h Grad Sektor
Di, 12.11. 3:30 11 2 22 210° SW
Di, 12.11. 3:20 11 2 - 210° SW
Di, 12.11. 3:10 11 2 - 210° SW
Di, 12.11. 3:00 11 2 22 210° SW
Di, 12.11. 2:50 11 2 - 210° SW
Di, 12.11. 2:40 11 2 - 210° SW
Di, 12.11. 2:30 7 2 18 220° SW
Di, 12.11. 2:00 11 2 25 210° SW
Di, 12.11. 1:30 13 3 26 210° SW
Di, 12.11. 1:00 18 3 29 190° S
Di, 12.11. 0:30 14 3 25 190° S
Ortszeit Untergrenze Bedeckung Gattung
total tief tief mittel hoch
Di, 12.11. 1:00 690 m 4/8 4/8 - - -
Mo, 11.11. 19:00 990 m 8/8 8/8 - - -
Mo, 11.11. 13:00 3000 m 8/8 8/8 - - -
Mo, 11.11. 7:00 30 m 8/8 8/8 - - -
Mo, 11.11. 1:00 <30 m 8/8 0/8 - - -
So, 10.11. 19:00 <30 m 8/8 0/8 - - -
So, 10.11. 13:00 - 0/8 0/8 - - -
So, 10.11. 7:00 - 0/8 0/8 - - -
Ortszeit Bedeckungsgrad in Achtel und Wolkenuntergrenze
Di, 12.11. 3:30 1(1020m) 4(1500m)
Di, 12.11. 3:20 1(1020m) 4(1500m)
Di, 12.11. 3:10 2(990m) 3(1500m)
Di, 12.11. 3:00 2(870m) 4(1230m) 5(1500m)
Di, 12.11. 2:50 2(870m) 4(1230m) 5(1500m)
Di, 12.11. 2:40 3(870m) 4(1020m) 5(1200m)
Di, 12.11. 2:30 1(390m) 6(870m) 7(1020m)
Di, 12.11. 2:00 7(900m) 7(990m)
Di, 12.11. 1:30 1(540m)
Di, 12.11. 1:00 2(690m) 4(900m) 4(1020m)
Di, 12.11. 0:30 2(330m) 3(480m) 7(720m)
Ortszeit Luftdruck NN (hPa) Tendenz (hPa in 3 Std.)
Di, 12.11. 1:00 1011 + 0,8
Mo, 11.11. 19:00 1011 + 1,1
Mo, 11.11. 13:00 1010 - 3,5
Mo, 11.11. 7:00 1017 - 0,6
Mo, 11.11. 1:00 1018 - 0,4
So, 10.11. 19:00 1018 + 2,2
So, 10.11. 13:00 1012 + 0,6
So, 10.11. 7:00 1013 + 0,1
Ortszeit Luftdruck NN (hPa) Tendenz (hPa in 3 Std.)
Di, 12.11. 3:30 1011 + 0,2
Di, 12.11. 3:20 1011 keine Meldung
Di, 12.11. 3:10 1011 keine Meldung
Di, 12.11. 3:00 1011 + 0,2
Di, 12.11. 2:50 1011 keine Meldung
Di, 12.11. 2:40 1011 keine Meldung
Di, 12.11. 2:30 1011 + 0,4
Di, 12.11. 2:00 1011 + 0,4
Di, 12.11. 1:30 1011 + 0,4
Di, 12.11. 1:00 1011 + 0,8
Di, 12.11. 0:30 1011 + 0,8
Ortszeit Schneehöhe (cm)
Di, 12.11. 1:00 0
Mo, 11.11. 19:00 0
Mo, 11.11. 13:00 0
Mo, 11.11. 7:00 0
Mo, 11.11. 1:00 0
So, 10.11. 19:00 0
So, 10.11. 13:00 0
So, 10.11. 7:00 0
Ortszeit Schneehöhe (cm)
Di, 12.11. 3:30 0
Di, 12.11. 3:20 0
Di, 12.11. 3:10 0
Di, 12.11. 3:00 0
Di, 12.11. 2:50 0
Di, 12.11. 2:40 0
Di, 12.11. 2:30 0
Di, 12.11. 2:00 0
Di, 12.11. 1:30 0
Di, 12.11. 1:00 0
Di, 12.11. 0:30 0
Link zu dieser Seite / Seite empfehlen

Das Wetter in ...